Time;durP1;ratioP1;P1;durP2;ratioP2;P2;SDS_P1;SDS_P2;PMS_P1;PMS_P2;Temp;Humidity;BMP_temperature;BMP_pressure;BME280_temperature;BME280_humidity;BME280_pressure;Samples;Min_cycle;Max_cycle;Signal;HPM_P1;HPM_P2
2022/01/13 00:00:16;;;;;;;15.00;8.85;;;;;;;-1.14;71.51;96250.38;4954632;28;20202;-82
2022/01/13 00:02:43;;;;;;;11.63;7.32;;;;;;;-1.24;72.15;96244.50;4954718;29;20209;-82
2022/01/13 00:05:10;;;;;;;18.45;11.50;;;;;;;-1.20;72.42;96253.03;4954673;28;20596;-82
2022/01/13 00:07:37;;;;;;;14.20;8.32;;;;;;;-1.05;72.64;96252.78;4954230;29;20212;-82
2022/01/13 00:10:05;;;;;;;21.33;11.70;;;;;;;-0.90;75.00;96255.06;4954637;29;20206;-82
2022/01/13 00:12:39;;;;;;;29.58;15.50;;;;;;;-0.77;77.07;96250.53;4954255;28;20202;-82
2022/01/13 00:15:24;;;;;;;34.15;18.08;;;;;;;-0.58;79.68;96248.44;4954297;28;20206;-82
2022/01/13 00:18:03;;;;;;;28.60;17.50;;;;;;;-0.48;81.34;96253.41;4912489;29;20213;-82
2022/01/13 00:26:06;;;;;;;35.95;19.35;;;;;;;-0.38;82.23;96265.22;4973600;28;20248;-82
2022/01/13 00:28:33;;;;;;;37.45;19.10;;;;;;;-0.43;82.50;96269.63;4973222;28;20751;-82
2022/01/13 00:31:05;;;;;;;34.65;18.25;;;;;;;-0.45;82.45;96273.13;4973109;28;20205;-82
2022/01/13 00:33:32;;;;;;;29.27;18.00;;;;;;;-0.55;82.39;96274.19;4973196;28;21258;-82
2022/01/13 00:36:01;;;;;;;33.50;17.90;;;;;;;-0.52;82.87;96272.41;4973148;28;20216;-82
2022/01/13 00:38:29;;;;;;;28.08;16.67;;;;;;;-0.56;82.82;96275.06;4973020;28;20203;-82
2022/01/13 00:40:56;;;;;;;33.45;18.33;;;;;;;-0.69;83.11;96275.28;4973018;28;20570;-82
2022/01/13 00:43:23;;;;;;;37.70;20.48;;;;;;;-0.72;83.80;96290.81;4972900;28;20213;-82
2022/01/13 00:45:50;;;;;;;31.50;20.70;;;;;;;-0.78;83.44;96285.78;4972958;28;20234;-82
2022/01/13 00:48:19;;;;;;;37.28;18.30;;;;;;;-0.85;83.56;96291.94;4940715;28;20201;-82
2022/01/13 00:50:46;;;;;;;33.13;18.17;;;;;;;-0.91;83.64;96299.75;4972609;28;20233;-82
2022/01/13 00:53:13;;;;;;;41.58;19.23;;;;;;;-0.98;83.86;96299.00;4972679;28;20209;-82
2022/01/13 00:55:49;;;;;;;31.40;19.30;;;;;;;-1.05;84.41;96296.56;4972660;28;20210;-82
2022/01/13 00:58:17;;;;;;;30.95;17.92;;;;;;;-1.08;84.29;96296.63;4972589;28;20212;-82
2022/01/13 01:00:44;;;;;;;34.35;16.48;;;;;;;-1.21;83.87;96301.09;5000752;28;20607;-82
2022/01/13 01:03:11;;;;;;;31.27;16.80;;;;;;;-1.33;83.56;96301.31;5013840;28;20660;-82
2022/01/13 01:05:39;;;;;;;30.30;17.90;;;;;;;-1.44;84.34;96303.22;5013871;28;20695;-81
2022/01/13 01:08:08;;;;;;;40.03;19.40;;;;;;;-1.48;84.87;96298.97;5014029;28;20567;-82
2022/01/13 01:10:35;;;;;;;29.45;16.90;;;;;;;-1.56;85.12;96301.66;5013632;28;20196;-81
2022/01/13 01:13:10;;;;;;;26.25;15.25;;;;;;;-1.57;85.11;96305.97;5013709;28;20212;-82
2022/01/13 01:15:38;;;;;;;36.80;18.20;;;;;;;-1.65;85.02;96299.25;4979167;28;20195;-82
2022/01/13 01:18:17;;;;;;;33.83;19.10;;;;;;;-1.64;84.95;96308.66;5013578;28;20196;-81
2022/01/13 01:20:51;;;;;;;33.53;17.88;;;;;;;-1.67;84.60;96319.84;5013545;28;20224;-82
2022/01/13 01:23:24;;;;;;;32.35;19.77;;;;;;;-1.73;85.11;96311.38;5013754;28;20211;-82
2022/01/13 01:26:01;;;;;;;26.23;18.20;;;;;;;-1.62;85.13;96304.34;5013692;28;20227;-81
2022/01/13 01:28:38;;;;;;;33.00;17.52;;;;;;;-1.61;84.57;96303.47;5013530;28;20200;-82
2022/01/13 01:31:05;;;;;;;31.45;17.05;;;;;;;-1.66;85.20;96312.97;5013473;28;20287;-82
2022/01/13 01:33:35;;;;;;;37.58;18.40;;;;;;;-1.64;84.92;96314.66;5012934;28;20219;-82
2022/01/13 01:36:11;;;;;;;35.20;18.60;;;;;;;-1.60;84.13;96305.16;5013315;28;20204;-81
2022/01/13 01:38:38;;;;;;;33.17;18.52;;;;;;;-1.60;84.81;96307.75;5013379;28;20204;-82
2022/01/13 01:41:05;;;;;;;27.85;15.50;;;;;;;-1.63;84.21;96313.78;5013292;28;20204;-82
2022/01/13 01:43:32;;;;;;;40.65;18.80;;;;;;;-1.69;84.71;96308.72;5013360;28;20215;-82
2022/01/13 01:45:59;;;;;;;46.88;18.20;;;;;;;-1.68;84.44;96309.56;5013269;28;20219;-82
2022/01/13 01:48:29;;;;;;;33.15;18.80;;;;;;;-1.67;84.10;96314.69;5013184;28;20207;-82
2022/01/13 01:50:58;;;;;;;34.53;17.20;;;;;;;-1.67;84.46;96309.56;5012996;28;20282;-82
2022/01/13 01:53:27;;;;;;;27.52;16.25;;;;;;;-1.74;84.52;96310.50;4979209;28;20211;-82
2022/01/13 01:55:56;;;;;;;35.33;20.20;;;;;;;-1.72;83.97;96302.78;5012883;28;20204;-82
2022/01/13 01:58:25;;;;;;;36.78;19.35;;;;;;;-1.69;84.63;96302.72;5013222;28;20208;-82
2022/01/13 02:00:53;;;;;;;40.70;21.60;;;;;;;-1.63;84.70;96302.63;5013253;28;20204;-82
2022/01/13 02:03:20;;;;;;;35.95;21.40;;;;;;;-1.78;84.19;96302.84;5012909;28;20201;-82
2022/01/13 02:05:49;;;;;;;34.75;18.67;;;;;;;-1.87;84.44;96299.53;5012951;28;20259;-82
2022/01/13 02:08:17;;;;;;;31.70;16.40;;;;;;;-1.97;84.64;96303.13;5012998;28;20207;-82
2022/01/13 02:10:46;;;;;;;33.33;18.42;;;;;;;-2.00;84.29;96297.16;5012610;28;20207;-82
2022/01/13 02:13:18;;;;;;;35.97;17.40;;;;;;;-2.01;85.03;96296.31;5012721;28;20200;-82
2022/01/13 02:16:00;;;;;;;34.65;18.20;;;;;;;-1.95;84.37;96293.66;4979873;28;20667;-82
2022/01/13 02:18:30;;;;;;;33.65;16.63;;;;;;;-1.96;84.34;96294.53;5012677;28;20200;-82
2022/01/13 02:20:59;;;;;;;45.78;23.52;;;;;;;-1.96;84.85;96284.25;5012506;28;20204;-82
2022/01/13 02:23:30;;;;;;;37.58;19.60;;;;;;;-1.95;84.50;96287.66;5012840;28;20254;-82
2022/01/13 02:25:57;;;;;;;39.15;20.50;;;;;;;-1.92;84.42;96291.03;5012955;28;20250;-82
2022/01/13 02:28:24;;;;;;;34.42;18.73;;;;;;;-1.91;83.80;96297.88;5012705;28;20215;-81
2022/01/13 02:30:52;;;;;;;38.20;17.45;;;;;;;-1.90;83.72;96302.16;5012607;28;20200;-82
2022/01/13 02:33:19;;;;;;;43.17;19.63;;;;;;;-1.95;83.77;96296.22;5012535;28;20215;-82
2022/01/13 02:35:46;;;;;;;34.10;19.13;;;;;;;-1.97;84.03;96295.41;5012436;28;20203;-82
2022/01/13 02:38:14;;;;;;;28.85;17.63;;;;;;;-2.01;83.64;96293.75;5012573;28;20206;-82
2022/01/13 02:40:41;;;;;;;31.67;16.83;;;;;;;-2.06;83.97;96300.66;5012562;28;20212;-82
2022/01/13 02:43:09;;;;;;;31.98;18.15;;;;;;;-2.03;83.51;96300.59;4978370;28;20199;-82
2022/01/13 02:45:39;;;;;;;35.25;16.63;;;;;;;-2.11;83.34;96299.84;4978164;28;20211;-81
2022/01/13 02:48:27;;;;;;;31.83;17.20;;;;;;;-2.12;83.88;96303.31;5016321;28;20196;-82
2022/01/13 02:50:54;;;;;;;27.20;17.55;;;;;;;-2.14;84.34;96307.63;5016089;28;20232;-81
2022/01/13 02:53:25;;;;;;;32.85;17.75;;;;;;;-2.17;83.71;96310.22;5016666;28;20211;-82
2022/01/13 02:55:54;;;;;;;28.00;17.45;;;;;;;-2.07;84.09;96308.38;4982670;28;20235;-82
2022/01/13 02:58:21;;;;;;;36.53;19.17;;;;;;;-2.03;83.49;96310.88;5016192;28;20211;-81
2022/01/13 03:00:48;;;;;;;36.58;17.70;;;;;;;-1.98;83.53;96298.84;4981468;28;20210;-82
2022/01/13 03:03:15;;;;;;;31.33;16.70;;;;;;;-2.04;82.78;96291.19;5016227;28;20200;-82
2022/01/13 03:05:42;;;;;;;27.33;16.55;;;;;;;-2.09;83.25;96292.97;5016159;28;20208;-81
2022/01/13 03:08:10;;;;;;;29.63;15.65;;;;;;;-2.11;83.09;96289.56;5016545;28;20204;-82
2022/01/13 03:10:39;;;;;;;38.17;17.45;;;;;;;-2.16;82.49;96283.66;5016219;28;20204;-81
2022/01/13 03:13:07;;;;;;;28.23;14.25;;;;;;;-2.22;82.63;96288.88;5015930;28;20211;-81
2022/01/13 03:15:34;;;;;;;30.38;18.30;;;;;;;-2.19;83.50;96286.25;5016232;28;20211;-82
2022/01/13 03:18:01;;;;;;;33.25;16.95;;;;;;;-2.19;82.69;96281.13;5015846;28;20413;-82
2022/01/13 03:20:28;;;;;;;45.28;22.27;;;;;;;-2.23;83.02;96282.03;4981405;28;20200;-82
2022/01/13 03:22:55;;;;;;;32.33;17.30;;;;;;;-2.25;82.81;96281.19;5015739;28;20200;-81
2022/01/13 03:25:23;;;;;;;33.15;17.25;;;;;;;-2.29;82.97;96287.25;5015658;28;20211;-82
2022/01/13 03:27:57;;;;;;;35.72;16.95;;;;;;;-2.28;82.53;96282.09;5015708;28;20264;-82
2022/01/13 03:30:25;;;;;;;26.30;13.57;;;;;;;-2.35;82.71;96282.16;4982200;28;20208;-81
2022/01/13 03:32:53;;;;;;;37.08;19.05;;;;;;;-2.43;83.00;96289.13;5015656;28;20208;-81
2022/01/13 03:35:20;;;;;;;32.50;17.35;;;;;;;-2.34;83.69;96300.13;5015713;28;20208;-81
2022/01/13 03:37:47;;;;;;;37.17;18.13;;;;;;;-2.27;83.26;96298.38;5015526;28;20211;-81
2022/01/13 03:40:15;;;;;;;35.10;17.25;;;;;;;-2.29;82.44;96300.13;5015474;28;20699;-81
2022/01/13 03:42:41;;;;;;;32.92;16.92;;;;;;;-2.32;82.69;96300.97;5015618;28;20211;-81
2022/01/13 03:45:13;;;;;;;35.50;17.92;;;;;;;-2.32;82.48;96305.25;4980750;28;20200;-82
2022/01/13 03:47:40;;;;;;;24.83;15.45;;;;;;;-2.39;82.12;96304.50;5015940;28;20220;-81
2022/01/13 03:50:07;;;;;;;33.00;17.42;;;;;;;-2.38;81.43;96301.06;4980946;28;20247;-81
2022/01/13 03:53:10;;;;;;;32.13;17.92;;;;;;;-2.28;82.05;96294.94;4980833;28;20211;-81
2022/01/13 03:56:15;;;;;;;25.52;16.00;;;;;;;-2.38;81.46;96305.34;5015506;28;20679;-81
2022/01/13 03:59:35;;;;;;;33.33;18.42;;;;;;;-2.51;80.93;96300.34;4935351;29;20230;-82
2022/01/13 04:02:10;;;;;;;21.33;13.23;;;;;;;-2.58;80.61;96301.31;4935627;29;20471;-82
2022/01/13 04:04:40;;;;;;;31.77;15.90;;;;;;;-2.59;80.74;96304.75;4935449;29;20210;-82
2022/01/13 04:07:16;;;;;;;27.08;14.32;;;;;;;-2.61;80.78;96309.00;4935030;29;20222;-82
2022/01/13 04:10:28;;;;;;;29.10;15.15;;;;;;;-2.60;80.54;96315.88;4935224;29;20209;-82
2022/01/13 04:12:58;;;;;;;26.00;15.48;;;;;;;-2.60;80.83;96321.03;4935177;29;20206;-82
2022/01/13 04:15:29;;;;;;;29.45;16.27;;;;;;;-2.57;81.04;96320.13;4935045;29;20685;-81
2022/01/13 04:17:59;;;;;;;28.42;15.88;;;;;;;-2.63;80.31;96326.16;4935156;29;20206;-81
2022/01/13 04:20:26;;;;;;;20.67;11.70;;;;;;;-2.68;80.75;96333.06;4934937;29;20210;-81
2022/01/13 04:22:52;;;;;;;39.55;15.25;;;;;;;-2.73;80.05;96329.72;4935193;29;20210;-82
2022/01/13 04:25:22;;;;;;;25.60;14.45;;;;;;;-2.79;80.41;96342.63;4887677;29;20210;-81
2022/01/13 04:27:49;;;;;;;28.10;17.02;;;;;;;-2.83;80.87;96346.09;4934701;29;20226;-82
2022/01/13 04:30:34;;;;;;;24.30;14.00;;;;;;;-2.82;81.04;96356.34;4934952;29;20218;-81
2022/01/13 04:33:04;;;;;;;29.02;14.93;;;;;;;-2.78;81.16;96357.16;4935007;29;20230;-82
2022/01/13 04:35:31;;;;;;;24.67;14.75;;;;;;;-2.83;80.53;96362.34;4980205;28;20204;-81
2022/01/13 04:37:59;;;;;;;28.95;13.65;;;;;;;-2.80;80.32;96358.91;5014542;28;20639;-82
2022/01/13 04:40:26;;;;;;;34.47;15.80;;;;;;;-2.77;80.11;96361.44;5014278;28;20208;-82
2022/01/13 04:42:55;;;;;;;23.35;14.88;;;;;;;-2.81;79.87;96355.47;5014347;28;20210;-82
2022/01/13 04:45:24;;;;;;;24.33;13.98;;;;;;;-2.81;80.53;96354.63;4979785;28;20200;-82
2022/01/13 04:47:53;;;;;;;30.05;13.77;;;;;;;-2.88;79.68;96346.13;5014615;28;20231;-81
2022/01/13 04:50:22;;;;;;;24.75;13.65;;;;;;;-2.93;79.93;96347.88;5014245;28;20235;-82
2022/01/13 04:52:49;;;;;;;25.58;12.45;;;;;;;-3.06;80.33;96345.44;5014318;28;20263;-82
2022/01/13 04:55:22;;;;;;;29.40;16.48;;;;;;;-3.02;80.55;96336.84;5014012;28;20208;-81
2022/01/13 04:57:49;;;;;;;26.17;14.90;;;;;;;-2.99;80.83;96350.50;5014503;28;20200;-82
2022/01/13 05:00:17;;;;;;;27.00;12.13;;;;;;;-2.98;80.00;96346.22;5014120;28;20605;-81
2022/01/13 05:02:44;;;;;;;25.63;14.23;;;;;;;-2.91;80.16;96351.28;5014102;28;20675;-82
2022/01/13 05:05:12;;;;;;;28.92;15.50;;;;;;;-2.86;79.96;96349.53;5014214;28;20203;-82
2022/01/13 05:07:41;;;;;;;23.83;13.63;;;;;;;-2.80;80.06;96338.34;5013682;28;20228;-82
2022/01/13 05:10:09;;;;;;;23.30;14.60;;;;;;;-2.68;79.35;96340.78;5013203;28;20204;-81
2022/01/13 05:12:41;;;;;;;21.55;12.75;;;;;;;-2.75;79.09;96344.28;5013775;28;20196;-82
2022/01/13 05:15:15;;;;;;;24.13;12.57;;;;;;;-2.78;78.60;96348.59;5013734;28;20204;-82
2022/01/13 05:20:29;;;;;;;19.95;10.75;;;;;;;-2.81;78.38;96358.03;5013454;28;20227;-81
2022/01/13 05:22:57;;;;;;;22.00;11.25;;;;;;;-2.82;79.36;96361.47;5015019;28;20204;-83
2022/01/13 05:25:24;;;;;;;21.15;12.45;;;;;;;-2.83;78.48;96369.19;5014913;28;20200;-83
2022/01/13 05:27:51;;;;;;;19.58;11.77;;;;;;;-2.81;78.43;96365.75;5014776;28;20217;-83
2022/01/13 05:30:19;;;;;;;30.42;14.20;;;;;;;-2.79;79.30;96370.03;5014769;28;20184;-82
2022/01/13 05:36:19;;;;;;;27.52;12.80;;;;;;;-2.85;78.20;96373.50;5014661;28;20306;-82
2022/01/13 05:38:48;;;;;;;19.42;11.98;;;;;;;-2.89;78.60;96376.94;5014315;28;20212;-79
2022/01/13 05:41:15;;;;;;;25.50;12.20;;;;;;;-2.92;78.39;96379.53;5014671;28;20215;-81
2022/01/13 05:43:41;;;;;;;27.98;13.65;;;;;;;-3.04;78.21;96380.50;5014038;28;20199;-82
2022/01/13 05:46:08;;;;;;;23.80;13.90;;;;;;;-3.19;78.81;96388.31;5014213;28;20188;-81
2022/01/13 05:48:35;;;;;;;19.63;9.98;;;;;;;-3.26;79.57;96384.94;4996239;28;20227;-81
2022/01/13 05:51:02;;;;;;;31.70;14.30;;;;;;;-3.27;79.89;96390.09;5014000;28;20232;-81
2022/01/13 05:53:29;;;;;;;30.80;13.20;;;;;;;-3.25;79.54;96396.91;5014470;28;20196;-82
2022/01/13 05:55:57;;;;;;;31.23;17.02;;;;;;;-3.22;79.62;96391.75;4980248;28;20200;-81
2022/01/13 05:58:24;;;;;;;23.33;12.98;;;;;;;-3.16;79.20;96402.00;5014580;28;20204;-81
2022/01/13 06:00:51;;;;;;;21.60;12.40;;;;;;;-3.10;78.88;96395.09;5014541;28;20531;-80
2022/01/13 06:03:18;;;;;;;22.65;12.63;;;;;;;-3.12;78.41;96395.13;5014696;28;20270;-80
2022/01/13 06:05:45;;;;;;;12.82;9.43;;;;;;;-3.12;78.14;96407.97;5014546;28;20647;-81
2022/01/13 06:08:12;;;;;;;20.83;12.13;;;;;;;-3.12;77.97;96406.25;5014412;28;20220;-80
2022/01/13 06:10:43;;;;;;;19.80;12.13;;;;;;;-3.19;77.74;96411.41;5014566;28;20203;-79
2022/01/13 06:13:11;;;;;;;22.98;12.05;;;;;;;-3.22;78.28;96411.44;5014282;28;20189;-80
2022/01/13 06:15:38;;;;;;;22.38;12.18;;;;;;;-3.19;78.94;96412.25;4996315;28;20323;-79
2022/01/13 06:18:11;;;;;;;20.73;12.75;;;;;;;-3.13;80.09;96414.81;4996056;28;20280;-82
2022/01/13 06:20:39;;;;;;;23.90;13.02;;;;;;;-3.02;79.17;96413.88;5013419;28;20210;-81
2022/01/13 06:23:07;;;;;;;26.58;15.02;;;;;;;-2.93;78.16;96419.78;5014260;28;20212;-84
2022/01/13 06:25:35;;;;;;;24.25;13.20;;;;;;;-2.90;78.72;96424.03;5014702;28;20208;-81
2022/01/13 06:28:02;;;;;;;30.85;15.35;;;;;;;-2.84;78.83;96418.88;5013878;28;20222;-80
2022/01/13 06:30:31;;;;;;;22.45;12.13;;;;;;;-2.88;78.67;96427.47;5014240;28;20193;-79
2022/01/13 06:46:26;;;;;;;25.15;11.65;;;;;;;-3.09;78.49;96445.59;5013286;28;20230;-79
2022/01/13 06:48:53;;;;;;;26.08;14.10;;;;;;;-3.09;78.54;96445.59;5012382;28;20231;-80
2022/01/13 06:51:19;;;;;;;26.67;15.23;;;;;;;-3.05;84.36;96442.97;5012633;28;20232;-80
2022/01/13 06:53:46;;;;;;;22.40;14.68;;;;;;;-3.02;79.29;96450.66;5013167;28;20647;-79
2022/01/13 06:56:13;;;;;;;20.10;11.95;;;;;;;-3.07;78.03;96443.84;5018847;28;20203;-79
2022/01/13 06:58:44;;;;;;;26.42;14.68;;;;;;;-3.21;77.91;96459.34;5031999;28;20211;-80
2022/01/13 07:01:11;;;;;;;21.95;10.98;;;;;;;-3.26;80.21;96453.38;5032841;28;20200;-80
2022/01/13 07:03:39;;;;;;;31.05;11.65;;;;;;;-3.27;82.43;96462.78;5032897;28;20204;-80
2022/01/13 07:06:06;;;;;;;27.52;12.13;;;;;;;-3.28;81.54;96468.78;5033130;28;20196;-79
2022/01/13 07:08:33;;;;;;;24.40;11.80;;;;;;;-3.33;79.84;96472.25;5033116;28;20212;-80
2022/01/13 07:11:03;;;;;;;21.65;12.23;;;;;;;-3.31;83.83;96460.25;5033173;28;20196;-80
2022/01/13 07:13:30;;;;;;;23.55;13.82;;;;;;;-3.25;85.27;96476.47;5032879;28;20188;-80
2022/01/13 07:15:58;;;;;;;49.63;22.10;;;;;;;-3.33;80.92;96475.66;5033473;28;20274;-79
2022/01/13 07:18:25;;;;;;;38.83;18.23;;;;;;;-3.41;78.71;96486.84;5033000;28;20304;-79
2022/01/13 07:20:53;;;;;;;25.92;17.83;;;;;;;-3.40;80.62;96484.28;5033122;28;20204;-79
2022/01/13 07:23:20;;;;;;;25.08;14.48;;;;;;;-3.31;81.34;96489.34;5033015;28;20194;-79
2022/01/13 07:25:47;;;;;;;19.10;12.55;;;;;;;-3.36;80.08;96485.09;5032731;28;20191;-79
2022/01/13 07:28:14;;;;;;;37.15;15.02;;;;;;;-3.46;77.40;96492.00;5032651;28;20238;-79
2022/01/13 07:30:41;;;;;;;31.33;17.20;;;;;;;-3.42;77.70;96491.13;5033707;28;20230;-79
2022/01/13 07:33:07;;;;;;;25.35;13.98;;;;;;;-3.35;77.69;96492.78;5000929;28;20203;-79
2022/01/13 07:35:34;;;;;;;17.88;11.05;;;;;;;-3.28;77.34;96497.03;5036486;28;20202;-79
2022/01/13 07:38:03;;;;;;;28.73;16.40;;;;;;;-3.23;77.82;96491.84;5037348;28;20195;-79
2022/01/13 07:40:45;;;;;;;30.27;14.45;;;;;;;-3.07;76.64;96498.63;5036095;28;20665;-78
2022/01/13 07:43:12;;;;;;;50.10;28.08;;;;;;;-3.04;75.87;96497.75;5036119;28;20198;-79
2022/01/13 07:45:38;;;;;;;29.17;14.25;;;;;;;-3.14;75.64;96509.81;5001712;28;20207;-80
2022/01/13 07:48:06;;;;;;;28.42;15.55;;;;;;;-3.14;75.96;96510.66;5036166;28;20215;-79
2022/01/13 07:50:33;;;;;;;19.13;9.98;;;;;;;-3.17;75.08;96523.50;5036361;28;20277;-80
2022/01/13 07:53:00;;;;;;;19.60;11.80;;;;;;;-3.15;75.25;96516.66;5036527;28;20208;-79
2022/01/13 07:55:28;;;;;;;20.83;11.57;;;;;;;-3.13;74.87;96526.91;5036198;28;20191;-80
2022/01/13 07:57:55;;;;;;;22.52;11.98;;;;;;;-3.13;74.73;96532.91;5016549;28;20203;-79
2022/01/13 08:00:22;;;;;;;27.38;15.57;;;;;;;-3.00;78.01;96530.25;5016340;28;20188;-79
2022/01/13 08:02:49;;;;;;;22.75;12.70;;;;;;;-2.96;79.22;96543.06;5016345;28;20195;-80
2022/01/13 08:05:16;;;;;;;27.15;13.30;;;;;;;-3.00;76.29;96541.38;5017132;28;20188;-80
2022/01/13 08:07:43;;;;;;;24.35;11.77;;;;;;;-2.88;83.60;96541.31;5016039;28;20208;-80
2022/01/13 08:10:11;;;;;;;36.72;20.98;;;;;;;-2.84;80.14;96552.41;5016151;28;20204;-80
2022/01/13 08:12:40;;;;;;;28.05;14.98;;;;;;;-2.89;75.81;96555.03;5016039;28;20192;-80
2022/01/13 08:15:12;;;;;;;32.25;17.30;;;;;;;-2.91;75.78;96561.84;5016081;28;20200;-80
2022/01/13 08:20:24;;;;;;;29.17;15.60;;;;;;;-2.94;75.72;96568.72;5015719;28;20203;-80
2022/01/13 08:22:51;;;;;;;23.35;11.50;;;;;;;-2.95;76.79;96564.44;5015951;28;20202;-79
2022/01/13 08:25:18;;;;;;;18.65;11.43;;;;;;;-2.97;77.06;96568.75;5015857;28;20192;-79
2022/01/13 08:27:46;;;;;;;22.23;13.20;;;;;;;-2.90;77.05;96575.53;5015667;28;20262;-79
2022/01/13 08:30:13;;;;;;;23.95;12.35;;;;;;;-2.95;74.65;96569.59;5015782;28;20196;-79
2022/01/13 08:32:41;;;;;;;32.90;15.98;;;;;;;-2.98;79.13;96577.31;5015639;28;20196;-80
2022/01/13 08:35:10;;;;;;;43.08;16.08;;;;;;;-3.01;76.04;96585.03;5015861;28;20207;-79
2022/01/13 08:37:37;;;;;;;27.33;13.55;;;;;;;-3.00;73.97;96586.72;5015540;28;20200;-79
2022/01/13 08:40:06;;;;;;;21.48;13.20;;;;;;;-3.02;72.56;96583.31;5015615;28;20211;-80
2022/01/13 08:42:34;;;;;;;36.95;13.95;;;;;;;-2.99;74.28;96583.31;4981633;28;20203;-80
2022/01/13 08:45:03;;;;;;;25.77;12.73;;;;;;;-2.91;75.64;96577.25;5014649;28;20562;-80
2022/01/13 08:50:52;;;;;;;31.45;14.50;;;;;;;-2.71;70.99;96573.72;5005402;28;20212;-80
2022/01/13 08:53:20;;;;;;;26.77;11.05;;;;;;;-2.64;72.81;96580.53;5015843;28;20216;-79
2022/01/13 08:55:48;;;;;;;20.90;11.40;;;;;;;-2.60;70.72;96583.09;5015551;28;20210;-80
2022/01/13 08:58:15;;;;;;;32.47;11.35;;;;;;;-2.58;71.91;96578.81;5034733;28;20203;-80
2022/01/13 09:00:43;;;;;;;21.08;11.75;;;;;;;-2.56;71.07;96582.22;5034819;28;20634;-79
2022/01/13 09:03:11;;;;;;;16.00;9.18;;;;;;;-2.73;70.11;96570.31;5034733;28;20207;-80
2022/01/13 09:05:39;;;;;;;17.02;10.50;;;;;;;-2.67;73.58;96565.13;5034535;28;20657;-79
2022/01/13 09:08:09;;;;;;;25.50;12.88;;;;;;;-2.77;72.25;96566.94;5034381;28;20230;-79
2022/01/13 09:10:37;;;;;;;18.90;10.52;;;;;;;-2.84;68.81;96568.69;5026744;28;20203;-80
2022/01/13 09:13:05;;;;;;;16.90;9.55;;;;;;;-2.81;70.09;96570.38;5033600;28;20662;-80
2022/01/13 09:15:35;;;;;;;13.43;9.50;;;;;;;-2.80;70.72;96566.94;5033640;28;20218;-80
2022/01/13 09:18:10;;;;;;;24.83;11.00;;;;;;;-2.89;70.52;96590.09;5014650;28;20761;-79
2022/01/13 09:20:38;;;;;;;22.42;11.10;;;;;;;-3.01;71.37;96577.31;5034249;28;20588;-80
2022/01/13 09:23:05;;;;;;;26.15;11.02;;;;;;;-2.99;70.64;96570.47;5034192;28;20209;-80
2022/01/13 09:25:33;;;;;;;23.88;11.75;;;;;;;-2.82;70.21;96563.53;5034020;28;20203;-79
2022/01/13 09:27:59;;;;;;;22.15;9.90;;;;;;;-2.84;69.29;96567.81;5033091;28;20215;-78
2022/01/13 09:30:26;;;;;;;15.95;9.68;;;;;;;-2.79;72.09;96555.81;5034109;28;20654;-79
2022/01/13 09:32:53;;;;;;;20.50;10.57;;;;;;;-2.68;76.01;96548.88;5034162;28;20650;-79
2022/01/13 09:35:22;;;;;;;23.10;12.10;;;;;;;-2.67;69.70;96536.88;5034335;28;20210;-79
2022/01/13 09:37:49;;;;;;;18.15;11.68;;;;;;;-2.56;69.99;96533.38;5034555;28;20204;-78
2022/01/13 09:40:17;;;;;;;17.77;8.18;;;;;;;-2.67;69.12;96544.59;5033782;28;20207;-79
2022/01/13 09:42:45;;;;;;;19.65;10.57;;;;;;;-2.63;69.20;96536.84;5033911;28;20184;-79
2022/01/13 09:45:15;;;;;;;18.63;10.20;;;;;;;-2.48;70.49;96530.75;4999184;28;20195;-79
2022/01/13 09:47:43;;;;;;;17.45;9.60;;;;;;;-2.39;71.39;96537.53;5034010;28;20200;-79
2022/01/13 09:50:15;;;;;;;21.27;10.38;;;;;;;-2.37;69.41;96528.09;5034104;28;20199;-78
2022/01/13 09:52:44;;;;;;;16.65;10.15;;;;;;;-2.22;68.08;96528.81;5034115;28;20239;-79
2022/01/13 09:55:13;;;;;;;20.95;11.00;;;;;;;-2.12;67.90;96526.16;5033488;28;20560;-79
2022/01/13 09:57:43;;;;;;;20.13;12.18;;;;;;;-2.09;67.42;96529.53;5017955;28;20207;-79
2022/01/13 10:00:11;;;;;;;14.73;9.90;;;;;;;-1.99;67.60;96512.34;5013827;28;20611;-79
2022/01/13 10:02:38;;;;;;;20.88;10.45;;;;;;;-1.91;70.10;96503.66;5014120;28;20195;-79
2022/01/13 10:05:05;;;;;;;25.95;13.23;;;;;;;-1.77;66.99;96489.78;5014264;28;20192;-79
2022/01/13 10:07:35;;;;;;;22.73;12.27;;;;;;;-1.68;66.17;96490.56;5013721;28;20188;-79
2022/01/13 10:10:06;;;;;;;21.63;11.13;;;;;;;-1.53;65.87;96492.06;5014091;28;20208;-79
2022/01/13 10:12:38;;;;;;;19.48;10.45;;;;;;;-1.63;65.10;96491.34;5014013;28;20188;-79
2022/01/13 10:31:52;;;;;;;18.90;10.52;;;;;;;-1.96;66.97;96454.00;5033309;28;20257;-80
2022/01/13 10:34:23;;;;;;;27.25;13.52;;;;;;;-1.77;69.66;96440.91;4973077;28;20201;-80
2022/01/13 10:37:07;;;;;;;18.98;11.90;;;;;;;-1.60;67.09;96446.69;4972508;28;20548;-80
2022/01/13 10:39:54;;;;;;;24.83;12.50;;;;;;;-1.51;69.35;96435.44;4972338;28;20212;-80
2022/01/13 10:43:06;;;;;;;24.10;12.00;;;;;;;-1.47;66.85;96445.66;4972518;28;20272;-78
2022/01/13 10:45:34;;;;;;;18.48;10.77;;;;;;;-1.53;66.34;96447.47;4972147;28;20646;-80
2022/01/13 10:48:04;;;;;;;21.77;12.98;;;;;;;-1.49;65.67;96437.09;4972206;28;20216;-79
2022/01/13 10:50:33;;;;;;;18.30;12.38;;;;;;;-1.45;66.22;96422.47;4972181;28;20633;-78
2022/01/13 10:53:03;;;;;;;23.30;12.70;;;;;;;-1.43;66.09;96411.31;4972142;28;20241;-79
2022/01/13 10:55:32;;;;;;;21.73;12.55;;;;;;;-1.38;65.47;96427.53;4972175;28;20278;-80
2022/01/13 10:57:59;;;;;;;22.48;11.90;;;;;;;-1.28;67.54;96429.09;4971812;28;20202;-79
2022/01/13 11:00:30;;;;;;;22.75;11.75;;;;;;;-1.21;66.21;96419.56;4970632;28;20205;-79
2022/01/13 11:03:04;;;;;;;23.55;11.27;;;;;;;-1.14;65.68;96413.47;4971317;28;20201;-80
2022/01/13 11:05:34;;;;;;;19.20;11.63;;;;;;;-1.08;66.15;96430.56;4940981;28;20209;-80
2022/01/13 11:08:04;;;;;;;18.88;11.07;;;;;;;-1.02;65.54;96438.19;4994832;28;20203;-80
2022/01/13 11:10:31;;;;;;;22.27;11.50;;;;;;;-1.02;65.60;96425.31;5037069;28;20205;-79
2022/01/13 11:13:01;;;;;;;26.02;13.63;;;;;;;-0.97;65.08;96426.06;5002554;28;20200;-79
2022/01/13 11:15:28;;;;;;;18.05;11.55;;;;;;;-0.87;65.27;96425.06;5037242;28;20234;-78
2022/01/13 11:17:59;;;;;;;22.42;10.13;;;;;;;-0.91;63.72;96407.94;5002371;28;20208;-78
2022/01/13 11:33:54;;;;;;;19.15;11.38;;;;;;;-0.70;63.67;96406.75;5015528;28;20696;-78
2022/01/13 11:36:22;;;;;;;21.15;12.18;;;;;;;-0.73;64.05;96412.81;4998227;28;20199;-78
2022/01/13 11:38:55;;;;;;;24.55;10.95;;;;;;;-0.78;69.32;96391.44;5016490;28;20551;-78
2022/01/13 11:41:21;;;;;;;23.55;14.73;;;;;;;-0.73;64.65;96399.94;5016615;28;20211;-78
2022/01/13 11:43:48;;;;;;;44.10;21.90;;;;;;;-0.79;65.40;96405.19;5016645;28;20201;-78
2022/01/13 11:46:20;;;;;;;22.10;11.60;;;;;;;-0.84;61.98;96401.00;5016305;28;20192;-78
2022/01/13 11:49:07;;;;;;;30.65;19.08;;;;;;;-1.01;63.16;96396.09;5016505;28;20744;-78
2022/01/13 11:51:43;;;;;;;18.25;10.70;;;;;;;-0.95;64.07;96390.84;5016512;28;20311;-78
2022/01/13 11:54:11;;;;;;;22.40;12.32;;;;;;;-0.91;63.19;96394.22;5016495;28;20204;-78
2022/01/13 11:56:38;;;;;;;18.92;11.88;;;;;;;-0.90;63.07;96404.50;5016340;28;20193;-78
2022/01/13 11:59:09;;;;;;;22.80;10.93;;;;;;;-0.77;62.66;96403.44;5016070;28;20200;-78
2022/01/13 12:01:38;;;;;;;23.08;13.05;;;;;;;-0.82;63.45;96407.81;5016654;28;20681;-78
2022/01/13 12:04:08;;;;;;;24.73;13.07;;;;;;;-0.94;64.22;96423.44;4997545;28;20197;-78
2022/01/13 12:06:42;;;;;;;22.50;11.77;;;;;;;-0.95;64.66;96432.06;5014830;28;20204;-78
2022/01/13 12:09:10;;;;;;;26.75;13.85;;;;;;;-1.02;64.78;96428.72;5015497;28;20223;-78
2022/01/13 12:11:42;;;;;;;17.50;12.18;;;;;;;-0.96;64.80;96413.16;5015030;28;20207;-78
2022/01/13 12:14:41;;;;;;;23.98;12.55;;;;;;;-0.82;65.26;96410.41;5014560;28;20204;-79
2022/01/13 12:17:12;;;;;;;18.27;10.90;;;;;;;-1.01;64.72;96385.78;5014863;28;20251;-78
2022/01/13 12:19:45;;;;;;;18.15;9.80;;;;;;;-1.22;63.41;96368.09;5013456;28;20291;-78
2022/01/13 12:22:24;;;;;;;25.42;11.55;;;;;;;-1.22;63.91;96360.34;4979902;28;20206;-78
2022/01/13 12:24:54;;;;;;;23.50;13.68;;;;;;;-1.20;64.68;96338.84;4981725;28;20208;-78
2022/01/13 12:27:23;;;;;;;30.83;13.05;;;;;;;-1.00;65.82;96334.25;5014348;28;20196;-79
2022/01/13 12:30:03;;;;;;;21.38;11.73;;;;;;;-0.81;64.41;96354.56;5033834;28;20219;-79